Babda, Lebanon
Current Conditions -  °F | °C
As of 5:00 AM on Sunday 26 Oct 2014 (Local Time) from OLBA Reporting Station
Few Clouds Few Clouds  
Wind Chill: 70°   Ceiling: Unl
Heat Index: 70°   Visibility: 5mi
Dew Point: 46°   Wind: 3mph
Humidity: 43%   Direction: 100°E
Pressure: 30"   Gusts: NA
Location:  33.88°N, 35.57°E
Report Text: OLBA 260200Z 10003KT 8000 FEW023 21/08 Q1016
Loading
Personal Weather Stations






























Interactive Weather Map
Tropical Storm Tracking
New forecast layout! Learn more

10-Day Weather Forecast

Advertisements
Track Severe Weather on mobile